PILOTS ONLINE: 264    ATC ONLINE: 26

KSTS

Charles M. Schulz Sonoma County Airport

Location

IATA STS
City Santa Rosa
Country  United States
Latitude 38° 30' 32" N
Longitude 122° 48' 46" W
Elevation 128 ft
Type Medium Airport

Map

Weather

METAR
2014/10/22 08:53
KSTS 220853Z AUTO 00000KT 10SM CLR 10/08 A3004 RMK AO2 SLP167 T01000083 50000
TAF
2014/10/22 06:21
TAF KSTS 220520Z 2206/2306 00000KT P6SM SKC 
     FM222000 27006KT P6SM BKN200 
     FM222200 22005KT P6SM BKN200 
     FM230300 VRB03KT P6SM BKN200

Runways

01/19 5002 ft / 100 ft
14/32 5115 ft / 150 ft

Outbound flights

Callsign Flying to Pilot ATD/STD ETA Aircraft

Inbound flights

Callsign Flying from Pilot ATD ETA Aircraft